sensor_id;sensor_type;location;lat;lon;timestamp;P1;durP1;ratioP1;P2;durP2;ratioP2
77451;SDS011;66537;52.370;4.832;2023-05-07T00:00:19;33.70;;;20.67;;
77451;SDS011;66537;52.370;4.832;2023-05-07T00:02:45;35.80;;;22.15;;
77451;SDS011;66537;52.370;4.832;2023-05-07T00:05:11;36.88;;;21.13;;
77451;SDS011;66537;52.370;4.832;2023-05-07T00:07:37;35.03;;;20.02;;
77451;SDS011;66537;52.370;4.832;2023-05-07T00:10:02;45.05;;;25.48;;
77451;SDS011;66537;52.370;4.832;2023-05-07T00:12:28;42.55;;;23.50;;
77451;SDS011;66537;52.370;4.832;2023-05-07T00:14:56;47.45;;;26.98;;
77451;SDS011;66537;52.370;4.832;2023-05-07T00:17:22;45.78;;;25.73;;
77451;SDS011;66537;52.370;4.832;2023-05-07T00:19:47;49.95;;;28.67;;
77451;SDS011;66537;52.370;4.832;2023-05-07T00:22:12;47.25;;;26.95;;
77451;SDS011;66537;52.370;4.832;2023-05-07T00:24:38;63.38;;;35.53;;
77451;SDS011;66537;52.370;4.832;2023-05-07T00:27:03;56.50;;;30.73;;
77451;SDS011;66537;52.370;4.832;2023-05-07T00:29:28;60.85;;;31.70;;
77451;SDS011;66537;52.370;4.832;2023-05-07T00:31:54;63.67;;;33.83;;
77451;SDS011;66537;52.370;4.832;2023-05-07T00:34:19;56.20;;;31.10;;
77451;SDS011;66537;52.370;4.832;2023-05-07T00:36:45;64.35;;;33.90;;
77451;SDS011;66537;52.370;4.832;2023-05-07T00:39:10;79.47;;;38.08;;
77451;SDS011;66537;52.370;4.832;2023-05-07T00:41:36;74.18;;;36.55;;
77451;SDS011;66537;52.370;4.832;2023-05-07T00:44:01;84.55;;;42.28;;
77451;SDS011;66537;52.370;4.832;2023-05-07T00:46:27;85.55;;;41.80;;
77451;SDS011;66537;52.370;4.832;2023-05-07T00:48:53;86.22;;;41.40;;
77451;SDS011;66537;52.370;4.832;2023-05-07T00:51:19;95.65;;;44.33;;
77451;SDS011;66537;52.370;4.832;2023-05-07T00:53:45;85.20;;;43.00;;
77451;SDS011;66537;52.370;4.832;2023-05-07T00:56:11;106.60;;;48.33;;
77451;SDS011;66537;52.370;4.832;2023-05-07T00:58:37;93.70;;;46.20;;
77451;SDS011;66537;52.370;4.832;2023-05-07T01:01:03;89.93;;;43.38;;
77451;SDS011;66537;52.370;4.832;2023-05-07T01:03:28;78.70;;;39.53;;
77451;SDS011;66537;52.370;4.832;2023-05-07T01:05:54;84.38;;;40.92;;
77451;SDS011;66537;52.370;4.832;2023-05-07T01:08:22;89.35;;;44.17;;
77451;SDS011;66537;52.370;4.832;2023-05-07T01:10:49;76.43;;;39.25;;
77451;SDS011;66537;52.370;4.832;2023-05-07T01:13:16;80.70;;;39.42;;
77451;SDS011;66537;52.370;4.832;2023-05-07T01:15:43;80.15;;;38.65;;
77451;SDS011;66537;52.370;4.832;2023-05-07T01:18:08;80.93;;;40.92;;
77451;SDS011;66537;52.370;4.832;2023-05-07T01:20:34;74.93;;;40.00;;
77451;SDS011;66537;52.370;4.832;2023-05-07T01:22:59;71.50;;;35.80;;
77451;SDS011;66537;52.370;4.832;2023-05-07T01:25:26;71.07;;;35.80;;
77451;SDS011;66537;52.370;4.832;2023-05-07T01:27:52;77.05;;;37.42;;
77451;SDS011;66537;52.370;4.832;2023-05-07T01:30:17;62.50;;;35.42;;
77451;SDS011;66537;52.370;4.832;2023-05-07T01:32:55;69.60;;;35.05;;
77451;SDS011;66537;52.370;4.832;2023-05-07T01:40:33;48.78;;;26.98;;
77451;SDS011;66537;52.370;4.832;2023-05-07T01:42:59;48.25;;;27.30;;
77451;SDS011;66537;52.370;4.832;2023-05-07T01:45:25;53.90;;;29.58;;
77451;SDS011;66537;52.370;4.832;2023-05-07T01:47:50;48.95;;;26.83;;
77451;SDS011;66537;52.370;4.832;2023-05-07T01:50:18;52.80;;;29.55;;
77451;SDS011;66537;52.370;4.832;2023-05-07T01:52:44;53.97;;;29.00;;
77451;SDS011;66537;52.370;4.832;2023-05-07T01:55:09;45.35;;;26.60;;
77451;SDS011;66537;52.370;4.832;2023-05-07T01:57:35;47.03;;;25.70;;
77451;SDS011;66537;52.370;4.832;2023-05-07T02:00:00;49.00;;;23.73;;
77451;SDS011;66537;52.370;4.832;2023-05-07T02:02:26;39.88;;;22.83;;
77451;SDS011;66537;52.370;4.832;2023-05-07T02:04:51;39.63;;;21.75;;
77451;SDS011;66537;52.370;4.832;2023-05-07T02:07:16;37.57;;;22.70;;
77451;SDS011;66537;52.370;4.832;2023-05-07T02:09:42;39.23;;;22.27;;
77451;SDS011;66537;52.370;4.832;2023-05-07T02:12:07;33.08;;;18.92;;
77451;SDS011;66537;52.370;4.832;2023-05-07T02:14:32;39.13;;;20.35;;
77451;SDS011;66537;52.370;4.832;2023-05-07T02:16:58;35.30;;;21.23;;
77451;SDS011;66537;52.370;4.832;2023-05-07T02:19:23;30.33;;;18.02;;
77451;SDS011;66537;52.370;4.832;2023-05-07T02:21:48;32.33;;;19.60;;
77451;SDS011;66537;52.370;4.832;2023-05-07T02:24:14;34.70;;;19.50;;
77451;SDS011;66537;52.370;4.832;2023-05-07T02:26:39;33.83;;;19.58;;
77451;SDS011;66537;52.370;4.832;2023-05-07T02:29:06;33.30;;;18.65;;
77451;SDS011;66537;52.370;4.832;2023-05-07T02:31:31;28.75;;;15.73;;
77451;SDS011;66537;52.370;4.832;2023-05-07T02:33:58;32.08;;;18.42;;
77451;SDS011;66537;52.370;4.832;2023-05-07T02:36:24;31.25;;;16.58;;
77451;SDS011;66537;52.370;4.832;2023-05-07T02:38:49;29.37;;;15.77;;
77451;SDS011;66537;52.370;4.832;2023-05-07T02:41:15;29.05;;;15.48;;
77451;SDS011;66537;52.370;4.832;2023-05-07T02:43:40;25.48;;;14.30;;
77451;SDS011;66537;52.370;4.832;2023-05-07T02:46:06;26.23;;;16.37;;
77451;SDS011;66537;52.370;4.832;2023-05-07T02:48:33;24.10;;;12.90;;
77451;SDS011;66537;52.370;4.832;2023-05-07T02:50:59;23.40;;;14.00;;
77451;SDS011;66537;52.370;4.832;2023-05-07T02:53:25;26.60;;;15.20;;
77451;SDS011;66537;52.370;4.832;2023-05-07T02:55:58;22.00;;;12.35;;
77451;SDS011;66537;52.370;4.832;2023-05-07T02:58:24;26.48;;;14.90;;
77451;SDS011;66537;52.370;4.832;2023-05-07T03:00:51;29.98;;;14.30;;
77451;SDS011;66537;52.370;4.832;2023-05-07T03:03:16;24.80;;;12.82;;
77451;SDS011;66537;52.370;4.832;2023-05-07T03:05:42;21.27;;;12.02;;
77451;SDS011;66537;52.370;4.832;2023-05-07T03:08:07;18.80;;;10.45;;
77451;SDS011;66537;52.370;4.832;2023-05-07T03:10:33;16.95;;;9.70;;
77451;SDS011;66537;52.370;4.832;2023-05-07T03:12:58;23.05;;;11.63;;
77451;SDS011;66537;52.370;4.832;2023-05-07T03:15:24;21.85;;;13.20;;
77451;SDS011;66537;52.370;4.832;2023-05-07T03:17:49;18.90;;;10.45;;
77451;SDS011;66537;52.370;4.832;2023-05-07T03:20:15;21.05;;;11.38;;
77451;SDS011;66537;52.370;4.832;2023-05-07T03:22:40;17.85;;;10.18;;
77451;SDS011;66537;52.370;4.832;2023-05-07T03:25:06;16.60;;;9.18;;
77451;SDS011;66537;52.370;4.832;2023-05-07T03:27:32;18.60;;;11.60;;
77451;SDS011;66537;52.370;4.832;2023-05-07T03:29:58;20.10;;;10.70;;
77451;SDS011;66537;52.370;4.832;2023-05-07T03:32:23;19.50;;;10.07;;
77451;SDS011;66537;52.370;4.832;2023-05-07T03:34:49;17.15;;;10.07;;
77451;SDS011;66537;52.370;4.832;2023-05-07T03:37:15;18.70;;;10.02;;
77451;SDS011;66537;52.370;4.832;2023-05-07T03:39:40;17.10;;;9.35;;
77451;SDS011;66537;52.370;4.832;2023-05-07T03:42:05;21.80;;;9.63;;
77451;SDS011;66537;52.370;4.832;2023-05-07T03:44:31;16.27;;;8.95;;
77451;SDS011;66537;52.370;4.832;2023-05-07T03:46:56;17.83;;;8.90;;
77451;SDS011;66537;52.370;4.832;2023-05-07T03:49:22;17.25;;;9.18;;
77451;SDS011;66537;52.370;4.832;2023-05-07T03:51:47;18.80;;;8.37;;
77451;SDS011;66537;52.370;4.832;2023-05-07T03:54:12;15.27;;;7.97;;
77451;SDS011;66537;52.370;4.832;2023-05-07T03:56:38;15.35;;;8.63;;
77451;SDS011;66537;52.370;4.832;2023-05-07T03:59:03;15.85;;;9.35;;
77451;SDS011;66537;52.370;4.832;2023-05-07T04:01:28;15.05;;;8.73;;
77451;SDS011;66537;52.370;4.832;2023-05-07T04:03:54;16.30;;;8.68;;
77451;SDS011;66537;52.370;4.832;2023-05-07T04:06:20;14.60;;;7.78;;
77451;SDS011;66537;52.370;4.832;2023-05-07T04:08:45;13.77;;;7.53;;
77451;SDS011;66537;52.370;4.832;2023-05-07T04:11:11;14.95;;;7.93;;
77451;SDS011;66537;52.370;4.832;2023-05-07T04:13:36;14.70;;;7.45;;
77451;SDS011;66537;52.370;4.832;2023-05-07T04:16:02;15.57;;;7.40;;
77451;SDS011;66537;52.370;4.832;2023-05-07T04:18:29;12.25;;;7.25;;
77451;SDS011;66537;52.370;4.832;2023-05-07T04:20:54;12.65;;;7.28;;
77451;SDS011;66537;52.370;4.832;2023-05-07T04:23:20;14.02;;;8.32;;
77451;SDS011;66537;52.370;4.832;2023-05-07T04:25:45;15.80;;;7.75;;
77451;SDS011;66537;52.370;4.832;2023-05-07T04:28:11;14.98;;;6.75;;
77451;SDS011;66537;52.370;4.832;2023-05-07T04:30:37;14.45;;;8.13;;
77451;SDS011;66537;52.370;4.832;2023-05-07T04:33:03;18.17;;;8.38;;
77451;SDS011;66537;52.370;4.832;2023-05-07T04:35:28;14.80;;;8.48;;
77451;SDS011;66537;52.370;4.832;2023-05-07T04:37:53;15.23;;;6.93;;
77451;SDS011;66537;52.370;4.832;2023-05-07T04:40:19;17.45;;;8.13;;
77451;SDS011;66537;52.370;4.832;2023-05-07T04:42:44;14.10;;;7.65;;
77451;SDS011;66537;52.370;4.832;2023-05-07T04:45:10;15.38;;;8.13;;
77451;SDS011;66537;52.370;4.832;2023-05-07T04:47:37;14.55;;;7.85;;
77451;SDS011;66537;52.370;4.832;2023-05-07T04:50:03;14.23;;;7.97;;
77451;SDS011;66537;52.370;4.832;2023-05-07T04:52:28;17.73;;;8.18;;
77451;SDS011;66537;52.370;4.832;2023-05-07T04:54:53;18.57;;;8.77;;
77451;SDS011;66537;52.370;4.832;2023-05-07T04:57:19;15.35;;;8.13;;
77451;SDS011;66537;52.370;4.832;2023-05-07T04:59:44;14.93;;;7.57;;
77451;SDS011;66537;52.370;4.832;2023-05-07T05:02:10;18.58;;;8.60;;
77451;SDS011;66537;52.370;4.832;2023-05-07T05:04:36;14.88;;;7.78;;
77451;SDS011;66537;52.370;4.832;2023-05-07T05:07:02;16.65;;;8.77;;
77451;SDS011;66537;52.370;4.832;2023-05-07T05:09:29;15.13;;;8.38;;
77451;SDS011;66537;52.370;4.832;2023-05-07T05:11:54;15.27;;;8.70;;
77451;SDS011;66537;52.370;4.832;2023-05-07T05:14:20;16.08;;;9.13;;
77451;SDS011;66537;52.370;4.832;2023-05-07T05:16:45;17.48;;;9.35;;
77451;SDS011;66537;52.370;4.832;2023-05-07T05:19:11;18.47;;;8.97;;
77451;SDS011;66537;52.370;4.832;2023-05-07T05:21:36;15.37;;;9.57;;
77451;SDS011;66537;52.370;4.832;2023-05-07T05:24:01;17.95;;;8.75;;
77451;SDS011;66537;52.370;4.832;2023-05-07T05:26:27;18.52;;;11.60;;
77451;SDS011;66537;52.370;4.832;2023-05-07T05:28:52;15.90;;;9.35;;
77451;SDS011;66537;52.370;4.832;2023-05-07T05:31:18;20.75;;;10.77;;
77451;SDS011;66537;52.370;4.832;2023-05-07T05:33:43;19.88;;;10.57;;
77451;SDS011;66537;52.370;4.832;2023-05-07T05:36:11;22.20;;;12.10;;
77451;SDS011;66537;52.370;4.832;2023-05-07T05:38:38;24.00;;;13.13;;
77451;SDS011;66537;52.370;4.832;2023-05-07T05:41:04;21.85;;;12.38;;
77451;SDS011;66537;52.370;4.832;2023-05-07T05:43:29;25.88;;;13.02;;
77451;SDS011;66537;52.370;4.832;2023-05-07T05:45:55;24.23;;;13.80;;
77451;SDS011;66537;52.370;4.832;2023-05-07T05:48:21;23.58;;;14.82;;
77451;SDS011;66537;52.370;4.832;2023-05-07T05:50:47;23.70;;;14.27;;
77451;SDS011;66537;52.370;4.832;2023-05-07T05:53:13;27.13;;;17.40;;
77451;SDS011;66537;52.370;4.832;2023-05-07T05:55:38;27.20;;;16.90;;
77451;SDS011;66537;52.370;4.832;2023-05-07T05:58:03;30.45;;;17.35;;
77451;SDS011;66537;52.370;4.832;2023-05-07T06:00:29;30.02;;;18.92;;
77451;SDS011;66537;52.370;4.832;2023-05-07T06:02:54;31.15;;;20.58;;
77451;SDS011;66537;52.370;4.832;2023-05-07T06:05:20;27.38;;;17.70;;
77451;SDS011;66537;52.370;4.832;2023-05-07T06:07:45;29.83;;;16.63;;
77451;SDS011;66537;52.370;4.832;2023-05-07T06:10:11;28.27;;;16.97;;
77451;SDS011;66537;52.370;4.832;2023-05-07T06:12:36;26.38;;;16.88;;
77451;SDS011;66537;52.370;4.832;2023-05-07T06:15:02;26.42;;;16.20;;
77451;SDS011;66537;52.370;4.832;2023-05-07T06:17:27;24.73;;;15.82;;
77451;SDS011;66537;52.370;4.832;2023-05-07T06:19:53;24.00;;;14.82;;
77451;SDS011;66537;52.370;4.832;2023-05-07T06:22:18;24.95;;;15.45;;
77451;SDS011;66537;52.370;4.832;2023-05-07T06:24:44;23.05;;;15.15;;
77451;SDS011;66537;52.370;4.832;2023-05-07T06:27:09;23.05;;;14.50;;
77451;SDS011;66537;52.370;4.832;2023-05-07T06:29:35;24.73;;;15.48;;
77451;SDS011;66537;52.370;4.832;2023-05-07T06:32:10;23.58;;;14.40;;
77451;SDS011;66537;52.370;4.832;2023-05-07T06:34:36;22.45;;;13.95;;
77451;SDS011;66537;52.370;4.832;2023-05-07T06:37:02;22.85;;;13.25;;
77451;SDS011;66537;52.370;4.832;2023-05-07T06:39:28;24.60;;;13.23;;
77451;SDS011;66537;52.370;4.832;2023-05-07T06:41:53;23.40;;;13.20;;
77451;SDS011;66537;52.370;4.832;2023-05-07T06:44:18;21.25;;;14.25;;
77451;SDS011;66537;52.370;4.832;2023-05-07T06:46:44;22.27;;;12.43;;
77451;SDS011;66537;52.370;4.832;2023-05-07T06:49:10;20.40;;;13.35;;
77451;SDS011;66537;52.370;4.832;2023-05-07T06:51:35;19.70;;;11.45;;
77451;SDS011;66537;52.370;4.832;2023-05-07T06:54:01;21.30;;;13.15;;
77451;SDS011;66537;52.370;4.832;2023-05-07T06:56:26;22.10;;;13.45;;
77451;SDS011;66537;52.370;4.832;2023-05-07T06:58:52;21.57;;;13.43;;
77451;SDS011;66537;52.370;4.832;2023-05-07T07:01:17;22.23;;;12.80;;
77451;SDS011;66537;52.370;4.832;2023-05-07T07:03:42;24.98;;;13.93;;
77451;SDS011;66537;52.370;4.832;2023-05-07T07:06:08;24.70;;;13.40;;
77451;SDS011;66537;52.370;4.832;2023-05-07T07:08:33;21.65;;;13.90;;
77451;SDS011;66537;52.370;4.832;2023-05-07T07:10:59;26.50;;;13.75;;
77451;SDS011;66537;52.370;4.832;2023-05-07T07:13:24;21.65;;;12.63;;
77451;SDS011;66537;52.370;4.832;2023-05-07T07:15:51;19.67;;;12.55;;
77451;SDS011;66537;52.370;4.832;2023-05-07T07:18:17;22.52;;;12.80;;
77451;SDS011;66537;52.370;4.832;2023-05-07T07:20:42;22.08;;;13.20;;
77451;SDS011;66537;52.370;4.832;2023-05-07T07:23:09;17.08;;;11.30;;
77451;SDS011;66537;52.370;4.832;2023-05-07T07:25:34;20.10;;;11.13;;
77451;SDS011;66537;52.370;4.832;2023-05-07T07:28:00;17.40;;;10.80;;
77451;SDS011;66537;52.370;4.832;2023-05-07T07:30:25;15.93;;;10.05;;
77451;SDS011;66537;52.370;4.832;2023-05-07T07:32:51;15.77;;;9.57;;
77451;SDS011;66537;52.370;4.832;2023-05-07T07:35:17;19.23;;;10.52;;
77451;SDS011;66537;52.370;4.832;2023-05-07T07:37:42;17.20;;;8.80;;
77451;SDS011;66537;52.370;4.832;2023-05-07T07:40:08;16.83;;;9.13;;
77451;SDS011;66537;52.370;4.832;2023-05-07T07:42:34;17.20;;;9.88;;
77451;SDS011;66537;52.370;4.832;2023-05-07T07:44:59;13.98;;;8.90;;
77451;SDS011;66537;52.370;4.832;2023-05-07T07:47:24;15.90;;;8.40;;
77451;SDS011;66537;52.370;4.832;2023-05-07T07:49:50;13.88;;;8.63;;
77451;SDS011;66537;52.370;4.832;2023-05-07T07:52:15;15.38;;;8.35;;
77451;SDS011;66537;52.370;4.832;2023-05-07T07:54:41;16.48;;;8.68;;
77451;SDS011;66537;52.370;4.832;2023-05-07T07:57:06;13.88;;;9.13;;
77451;SDS011;66537;52.370;4.832;2023-05-07T07:59:31;17.87;;;8.53;;
77451;SDS011;66537;52.370;4.832;2023-05-07T08:01:57;13.27;;;7.88;;
77451;SDS011;66537;52.370;4.832;2023-05-07T08:04:22;14.23;;;7.95;;
77451;SDS011;66537;52.370;4.832;2023-05-07T08:06:47;11.27;;;7.22;;
77451;SDS011;66537;52.370;4.832;2023-05-07T08:09:13;12.55;;;6.63;;
77451;SDS011;66537;52.370;4.832;2023-05-07T08:11:39;12.20;;;6.90;;
77451;SDS011;66537;52.370;4.832;2023-05-07T08:14:04;15.75;;;8.50;;
77451;SDS011;66537;52.370;4.832;2023-05-07T08:16:30;16.45;;;8.32;;
77451;SDS011;66537;52.370;4.832;2023-05-07T08:18:55;15.65;;;8.68;;
77451;SDS011;66537;52.370;4.832;2023-05-07T08:21:20;13.87;;;8.97;;
77451;SDS011;66537;52.370;4.832;2023-05-07T08:23:46;14.45;;;8.23;;
77451;SDS011;66537;52.370;4.832;2023-05-07T08:26:12;13.50;;;8.70;;
77451;SDS011;66537;52.370;4.832;2023-05-07T08:28:37;14.07;;;8.73;;
77451;SDS011;66537;52.370;4.832;2023-05-07T08:31:02;16.10;;;9.00;;
77451;SDS011;66537;52.370;4.832;2023-05-07T08:33:28;14.38;;;8.48;;
77451;SDS011;66537;52.370;4.832;2023-05-07T08:35:53;14.48;;;8.45;;
77451;SDS011;66537;52.370;4.832;2023-05-07T08:38:18;14.30;;;8.83;;
77451;SDS011;66537;52.370;4.832;2023-05-07T08:40:44;13.73;;;9.73;;
77451;SDS011;66537;52.370;4.832;2023-05-07T08:43:10;16.30;;;9.18;;
77451;SDS011;66537;52.370;4.832;2023-05-07T08:45:40;14.95;;;9.77;;
77451;SDS011;66537;52.370;4.832;2023-05-07T08:48:10;17.33;;;8.70;;
77451;SDS011;66537;52.370;4.832;2023-05-07T08:50:40;14.07;;;9.05;;
77451;SDS011;66537;52.370;4.832;2023-05-07T08:53:05;12.85;;;8.82;;
77451;SDS011;66537;52.370;4.832;2023-05-07T08:55:31;13.65;;;8.50;;
77451;SDS011;66537;52.370;4.832;2023-05-07T08:57:56;15.38;;;7.75;;
77451;SDS011;66537;52.370;4.832;2023-05-07T09:00:22;12.65;;;6.88;;
77451;SDS011;66537;52.370;4.832;2023-05-07T09:02:47;13.50;;;7.03;;
77451;SDS011;66537;52.370;4.832;2023-05-07T09:05:13;13.88;;;7.88;;
77451;SDS011;66537;52.370;4.832;2023-05-07T09:07:38;13.70;;;7.47;;
77451;SDS011;66537;52.370;4.832;2023-05-07T09:10:04;12.80;;;7.60;;
77451;SDS011;66537;52.370;4.832;2023-05-07T09:12:30;13.02;;;7.57;;
77451;SDS011;66537;52.370;4.832;2023-05-07T09:14:56;11.60;;;6.15;;
77451;SDS011;66537;52.370;4.832;2023-05-07T09:17:22;12.30;;;5.80;;
77451;SDS011;66537;52.370;4.832;2023-05-07T09:19:48;12.38;;;6.25;;
77451;SDS011;66537;52.370;4.832;2023-05-07T09:22:14;13.57;;;7.32;;
77451;SDS011;66537;52.370;4.832;2023-05-07T09:24:40;14.43;;;7.22;;
77451;SDS011;66537;52.370;4.832;2023-05-07T09:27:05;12.00;;;6.80;;
77451;SDS011;66537;52.370;4.832;2023-05-07T09:29:31;11.68;;;6.72;;
77451;SDS011;66537;52.370;4.832;2023-05-07T09:32:03;12.10;;;6.38;;
77451;SDS011;66537;52.370;4.832;2023-05-07T09:34:30;12.60;;;6.38;;
77451;SDS011;66537;52.370;4.832;2023-05-07T09:36:55;11.25;;;6.60;;
77451;SDS011;66537;52.370;4.832;2023-05-07T09:39:23;11.98;;;6.18;;
77451;SDS011;66537;52.370;4.832;2023-05-07T09:41:49;12.35;;;6.20;;
77451;SDS011;66537;52.370;4.832;2023-05-07T09:44:14;12.45;;;5.63;;
77451;SDS011;66537;52.370;4.832;2023-05-07T09:46:41;13.02;;;6.80;;
77451;SDS011;66537;52.370;4.832;2023-05-07T09:49:11;10.90;;;6.47;;
77451;SDS011;66537;52.370;4.832;2023-05-07T09:51:45;11.95;;;7.10;;
77451;SDS011;66537;52.370;4.832;2023-05-07T09:54:14;10.00;;;5.25;;
77451;SDS011;66537;52.370;4.832;2023-05-07T09:56:40;10.65;;;5.43;;
77451;SDS011;66537;52.370;4.832;2023-05-07T09:59:08;13.60;;;6.10;;
77451;SDS011;66537;52.370;4.832;2023-05-07T10:01:37;12.40;;;6.63;;
77451;SDS011;66537;52.370;4.832;2023-05-07T10:04:04;11.85;;;6.43;;
77451;SDS011;66537;52.370;4.832;2023-05-07T10:06:30;11.10;;;5.10;;
77451;SDS011;66537;52.370;4.832;2023-05-07T10:08:56;13.60;;;7.10;;
77451;SDS011;66537;52.370;4.832;2023-05-07T10:11:22;13.48;;;6.00;;
77451;SDS011;66537;52.370;4.832;2023-05-07T10:13:48;13.43;;;7.32;;
77451;SDS011;66537;52.370;4.832;2023-05-07T10:16:13;10.02;;;5.57;;
77451;SDS011;66537;52.370;4.832;2023-05-07T10:18:42;12.05;;;5.32;;
77451;SDS011;66537;52.370;4.832;2023-05-07T10:21:11;12.65;;;5.32;;
77451;SDS011;66537;52.370;4.832;2023-05-07T10:23:46;8.85;;;4.00;;
77451;SDS011;66537;52.370;4.832;2023-05-07T10:26:15;6.97;;;3.35;;
77451;SDS011;66537;52.370;4.832;2023-05-07T10:28:44;13.15;;;5.30;;
77451;SDS011;66537;52.370;4.832;2023-05-07T10:33:59;12.95;;;6.32;;
77451;SDS011;66537;52.370;4.832;2023-05-07T10:36:27;10.63;;;5.85;;
77451;SDS011;66537;52.370;4.832;2023-05-07T10:38:53;12.32;;;5.85;;
77451;SDS011;66537;52.370;4.832;2023-05-07T10:41:20;11.13;;;6.35;;
77451;SDS011;66537;52.370;4.832;2023-05-07T10:43:46;14.88;;;8.07;;
77451;SDS011;66537;52.370;4.832;2023-05-07T10:46:18;12.57;;;8.13;;
77451;SDS011;66537;52.370;4.832;2023-05-07T10:51:25;8.82;;;3.83;;
77451;SDS011;66537;52.370;4.832;2023-05-07T10:56:39;9.48;;;4.13;;
77451;SDS011;66537;52.370;4.832;2023-05-07T11:01:55;9.10;;;3.67;;
77451;SDS011;66537;52.370;4.832;2023-05-07T11:04:23;10.20;;;3.25;;
77451;SDS011;66537;52.370;4.832;2023-05-07T11:07:34;9.93;;;4.75;;
77451;SDS011;66537;52.370;4.832;2023-05-07T11:12:16;11.55;;;5.20;;
77451;SDS011;66537;52.370;4.832;2023-05-07T11:17:07;8.90;;;4.00;;
77451;SDS011;66537;52.370;4.832;2023-05-07T11:19:50;11.82;;;5.60;;
77451;SDS011;66537;52.370;4.832;2023-05-07T11:24:59;12.45;;;6.20;;
77451;SDS011;66537;52.370;4.832;2023-05-07T11:27:25;15.05;;;7.18;;
77451;SDS011;66537;52.370;4.832;2023-05-07T11:29:51;15.50;;;6.70;;
77451;SDS011;66537;52.370;4.832;2023-05-07T11:32:23;13.60;;;6.28;;
77451;SDS011;66537;52.370;4.832;2023-05-07T11:34:58;12.40;;;5.28;;
77451;SDS011;66537;52.370;4.832;2023-05-07T11:37:25;11.95;;;5.68;;
77451;SDS011;66537;52.370;4.832;2023-05-07T11:40:06;9.48;;;5.78;;
77451;SDS011;66537;52.370;4.832;2023-05-07T11:42:36;13.77;;;5.78;;
77451;SDS011;66537;52.370;4.832;2023-05-07T11:45:03;10.88;;;5.07;;
77451;SDS011;66537;52.370;4.832;2023-05-07T11:47:30;11.63;;;5.28;;
77451;SDS011;66537;52.370;4.832;2023-05-07T11:49:56;8.57;;;4.45;;
77451;SDS011;66537;52.370;4.832;2023-05-07T11:52:22;11.27;;;4.60;;
77451;SDS011;66537;52.370;4.832;2023-05-07T11:54:49;11.88;;;4.15;;
77451;SDS011;66537;52.370;4.832;2023-05-07T11:57:15;7.75;;;3.40;;
77451;SDS011;66537;52.370;4.832;2023-05-07T11:59:40;10.60;;;3.33;;
77451;SDS011;66537;52.370;4.832;2023-05-07T12:02:06;10.57;;;3.28;;
77451;SDS011;66537;52.370;4.832;2023-05-07T12:04:32;10.88;;;2.47;;
77451;SDS011;66537;52.370;4.832;2023-05-07T12:06:57;10.13;;;2.63;;
77451;SDS011;66537;52.370;4.832;2023-05-07T12:09:23;10.85;;;2.60;;
77451;SDS011;66537;52.370;4.832;2023-05-07T12:11:48;11.10;;;2.60;;
77451;SDS011;66537;52.370;4.832;2023-05-07T12:14:13;9.98;;;2.53;;
77451;SDS011;66537;52.370;4.832;2023-05-07T12:16:40;11.75;;;2.70;;
77451;SDS011;66537;52.370;4.832;2023-05-07T12:19:06;10.65;;;2.70;;
77451;SDS011;66537;52.370;4.832;2023-05-07T12:21:34;12.50;;;2.67;;
77451;SDS011;66537;52.370;4.832;2023-05-07T12:24:00;10.07;;;2.08;;
77451;SDS011;66537;52.370;4.832;2023-05-07T12:26:26;8.07;;;2.50;;
77451;SDS011;66537;52.370;4.832;2023-05-07T12:28:51;13.02;;;2.33;;
77451;SDS011;66537;52.370;4.832;2023-05-07T12:31:17;12.20;;;2.80;;
77451;SDS011;66537;52.370;4.832;2023-05-07T12:33:42;11.68;;;2.58;;
77451;SDS011;66537;52.370;4.832;2023-05-07T12:36:08;14.10;;;2.95;;
77451;SDS011;66537;52.370;4.832;2023-05-07T12:38:37;8.90;;;2.67;;
77451;SDS011;66537;52.370;4.832;2023-05-07T12:41:03;12.70;;;3.22;;
77451;SDS011;66537;52.370;4.832;2023-05-07T12:43:29;11.00;;;3.42;;
77451;SDS011;66537;52.370;4.832;2023-05-07T12:45:56;11.98;;;3.80;;
77451;SDS011;66537;52.370;4.832;2023-05-07T12:48:23;11.68;;;4.13;;
77451;SDS011;66537;52.370;4.832;2023-05-07T12:50:52;12.30;;;4.60;;
77451;SDS011;66537;52.370;4.832;2023-05-07T12:53:20;10.15;;;3.60;;
77451;SDS011;66537;52.370;4.832;2023-05-07T12:55:47;12.43;;;3.70;;
77451;SDS011;66537;52.370;4.832;2023-05-07T12:58:18;10.88;;;3.70;;
77451;SDS011;66537;52.370;4.832;2023-05-07T13:00:46;9.52;;;3.65;;
77451;SDS011;66537;52.370;4.832;2023-05-07T13:03:48;11.85;;;3.83;;
77451;SDS011;66537;52.370;4.832;2023-05-07T13:06:09;13.10;;;3.70;;
77451;SDS011;66537;52.370;4.832;2023-05-07T13:08:37;9.77;;;3.63;;
77451;SDS011;66537;52.370;4.832;2023-05-07T13:11:10;10.82;;;3.15;;
77451;SDS011;66537;52.370;4.832;2023-05-07T13:13:38;12.27;;;4.93;;
77451;SDS011;66537;52.370;4.832;2023-05-07T13:16:05;11.90;;;4.07;;
77451;SDS011;66537;52.370;4.832;2023-05-07T13:18:31;13.20;;;3.92;;
77451;SDS011;66537;52.370;4.832;2023-05-07T13:20:58;12.82;;;4.28;;
77451;SDS011;66537;52.370;4.832;2023-05-07T13:23:24;14.25;;;4.70;;
77451;SDS011;66537;52.370;4.832;2023-05-07T13:25:50;11.68;;;4.45;;
77451;SDS011;66537;52.370;4.832;2023-05-07T13:28:15;11.43;;;4.03;;
77451;SDS011;66537;52.370;4.832;2023-05-07T13:30:41;13.50;;;6.13;;
77451;SDS011;66537;52.370;4.832;2023-05-07T13:33:07;35.75;;;17.65;;
77451;SDS011;66537;52.370;4.832;2023-05-07T13:35:33;39.15;;;18.75;;
77451;SDS011;66537;52.370;4.832;2023-05-07T13:37:59;39.63;;;19.08;;
77451;SDS011;66537;52.370;4.832;2023-05-07T13:40:24;28.37;;;15.10;;
77451;SDS011;66537;52.370;4.832;2023-05-07T13:42:50;22.42;;;12.90;;
77451;SDS011;66537;52.370;4.832;2023-05-07T13:45:16;31.08;;;17.67;;
77451;SDS011;66537;52.370;4.832;2023-05-07T13:47:42;33.42;;;20.73;;
77451;SDS011;66537;52.370;4.832;2023-05-07T13:50:10;39.45;;;22.17;;
77451;SDS011;66537;52.370;4.832;2023-05-07T13:52:38;39.15;;;21.40;;
77451;SDS011;66537;52.370;4.832;2023-05-07T13:55:05;42.92;;;25.10;;
77451;SDS011;66537;52.370;4.832;2023-05-07T13:57:31;47.55;;;25.63;;
77451;SDS011;66537;52.370;4.832;2023-05-07T13:59:56;44.27;;;25.57;;
77451;SDS011;66537;52.370;4.832;2023-05-07T14:02:21;54.58;;;27.63;;
77451;SDS011;66537;52.370;4.832;2023-05-07T14:04:47;49.53;;;27.70;;
77451;SDS011;66537;52.370;4.832;2023-05-07T14:07:12;49.73;;;27.83;;
77451;SDS011;66537;52.370;4.832;2023-05-07T14:09:37;50.88;;;26.35;;
77451;SDS011;66537;52.370;4.832;2023-05-07T14:12:03;51.67;;;27.03;;
77451;SDS011;66537;52.370;4.832;2023-05-07T14:14:28;43.53;;;23.63;;
77451;SDS011;66537;52.370;4.832;2023-05-07T14:16:54;47.03;;;27.85;;
77451;SDS011;66537;52.370;4.832;2023-05-07T14:19:19;49.87;;;27.60;;
77451;SDS011;66537;52.370;4.832;2023-05-07T14:21:44;44.92;;;25.70;;
77451;SDS011;66537;52.370;4.832;2023-05-07T14:24:10;41.13;;;24.40;;
77451;SDS011;66537;52.370;4.832;2023-05-07T14:26:35;50.33;;;25.27;;
77451;SDS011;66537;52.370;4.832;2023-05-07T14:29:00;47.15;;;25.30;;
77451;SDS011;66537;52.370;4.832;2023-05-07T14:31:26;45.40;;;22.80;;
77451;SDS011;66537;52.370;4.832;2023-05-07T14:33:51;46.88;;;23.75;;
77451;SDS011;66537;52.370;4.832;2023-05-07T14:36:17;44.38;;;24.92;;
77451;SDS011;66537;52.370;4.832;2023-05-07T14:38:45;41.13;;;24.60;;
77451;SDS011;66537;52.370;4.832;2023-05-07T14:41:11;50.85;;;26.90;;
77451;SDS011;66537;52.370;4.832;2023-05-07T14:43:36;42.80;;;23.85;;
77451;SDS011;66537;52.370;4.832;2023-05-07T14:46:02;44.60;;;25.93;;